Time;durP1;ratioP1;P1;durP2;ratioP2;P2;SDS_P1;SDS_P2;PMS_P1;PMS_P2;Temp;Humidity;BMP_temperature;BMP_pressure;BME280_temperature;BME280_humidity;BME280_pressure;Samples;Min_cycle;Max_cycle;Signal;HPM_P1;HPM_P2
2023/08/23 00:00:25;;;;;;;;;;;25.60;61.20;;;;;;5060268;28;20047;-36
2023/08/23 00:02:51;;;;;;;5.93;5.43;;;25.50;62.10;;;;;;5054594;28;19937;-35
2023/08/23 00:05:18;;;;;;;6.18;5.68;;;25.50;61.50;;;;;;5062704;28;20029;-35
2023/08/23 00:07:44;;;;;;;6.15;5.65;;;25.50;61.80;;;;;;5067645;28;20152;-35
2023/08/23 00:10:10;;;;;;;5.55;5.05;;;25.50;62.00;;;;;;5056619;28;20050;-35
2023/08/23 00:12:36;;;;;;;6.00;5.50;;;25.50;62.20;;;;;;5053042;28;20060;-36
2023/08/23 00:15:02;;;;;;;5.65;5.25;;;25.40;61.90;;;;;;5065174;28;20041;-35
2023/08/23 00:17:29;;;;;;;5.60;5.20;;;25.40;61.60;;;;;;5060607;28;20036;-35
2023/08/23 00:19:55;;;;;;;5.93;5.43;;;25.40;62.20;;;;;;5051884;28;20481;-35
2023/08/23 00:22:21;;;;;;;5.28;4.88;;;25.40;61.90;;;;;;5051057;28;20085;-35
2023/08/23 00:24:47;;;;;;;5.47;5.07;;;25.40;61.90;;;;;;5055576;28;20029;-35
2023/08/23 00:27:13;;;;;;;5.97;5.47;;;25.30;61.90;;;;;;5061275;28;20089;-35
2023/08/23 00:29:39;;;;;;;5.70;5.20;;;25.40;61.70;;;;;;5053449;28;20025;-35
2023/08/23 00:32:05;;;;;;;5.13;4.72;;;25.30;61.20;;;;;;5056094;28;20040;-35
2023/08/23 00:34:32;;;;;;;5.97;5.40;;;25.30;60.70;;;;;;5054402;28;20045;-35
2023/08/23 00:36:58;;;;;;;5.55;5.07;;;25.30;61.10;;;;;;5061843;28;20097;-35
2023/08/23 00:39:24;;;;;;;5.50;5.10;;;25.30;61.00;;;;;;5062870;28;20108;-35
2023/08/23 00:41:50;;;;;;;5.63;5.23;;;25.20;60.90;;;;;;5069342;28;20025;-35
2023/08/23 00:44:16;;;;;;;5.63;5.22;;;25.20;61.30;;;;;;5063325;28;20097;-35
2023/08/23 00:46:43;;;;;;;5.90;5.40;;;25.20;61.20;;;;;;5068869;28;20033;-35
2023/08/23 00:49:09;;;;;;;5.85;5.35;;;25.20;61.40;;;;;;5075623;28;20021;-35
2023/08/23 00:51:35;;;;;;;5.73;5.23;;;25.20;61.50;;;;;;5076765;28;20032;-35
2023/08/23 00:54:02;;;;;;;6.07;5.57;;;25.20;61.10;;;;;;5032541;28;20437;-35
2023/08/23 00:56:28;;;;;;;5.60;5.10;;;25.20;61.70;;;;;;5067014;28;20047;-35
2023/08/23 00:58:54;;;;;;;5.05;4.65;;;25.10;61.00;;;;;;5060762;28;20056;-35
2023/08/23 01:01:20;;;;;;;5.80;5.30;;;25.10;60.90;;;;;;5060649;28;20041;-36
2023/08/23 01:03:49;;;;;;;5.30;4.90;;;25.10;61.30;;;;;;5068225;28;20024;-35
2023/08/23 01:06:27;;;;;;;5.30;4.90;;;25.00;61.00;;;;;;5060524;28;20120;-35
2023/08/23 01:09:11;;;;;;;5.55;5.15;;;25.00;60.50;;;;;;5041916;28;20057;-35
2023/08/23 01:11:41;;;;;;;5.10;4.70;;;25.00;60.20;;;;;;5058716;28;20115;-35
2023/08/23 01:14:21;;;;;;;5.57;5.07;;;25.00;60.50;;;;;;5060372;28;20037;-35
2023/08/23 01:16:50;;;;;;;5.68;5.25;;;25.00;60.00;;;;;;5055348;28;20033;-35
2023/08/23 01:19:31;;;;;;;6.07;5.57;;;24.90;60.40;;;;;;5016183;28;20504;-35
2023/08/23 01:21:57;;;;;;;5.75;5.35;;;24.90;63.00;;;;;;5037805;28;20032;-35
2023/08/23 01:24:23;;;;;;;5.85;5.35;;;24.90;64.80;;;;;;5042137;28;20021;-35
2023/08/23 01:26:49;;;;;;;5.72;5.25;;;24.90;65.90;;;;;;5059931;28;20056;-35
2023/08/23 01:29:16;;;;;;;6.77;6.27;;;24.90;66.10;;;;;;5063136;28;20097;-35
2023/08/23 01:31:43;;;;;;;6.57;6.03;;;24.90;66.00;;;;;;5061098;28;20110;-35
2023/08/23 01:34:13;;;;;;;6.35;5.85;;;24.90;66.10;;;;;;5061648;28;20046;-35
2023/08/23 01:36:41;;;;;;;6.13;5.63;;;24.90;66.40;;;;;;5044848;28;20772;-34
2023/08/23 01:39:09;;;;;;;6.53;6.03;;;24.90;66.50;;;;;;5065367;28;20056;-35
2023/08/23 01:41:35;;;;;;;6.93;6.38;;;24.90;66.40;;;;;;5073175;28;20028;-35
2023/08/23 01:44:01;;;;;;;6.38;5.88;;;24.90;66.60;;;;;;5070289;28;20021;-35
2023/08/23 01:46:28;;;;;;;6.37;5.87;;;24.90;66.70;;;;;;5063376;28;20044;-35
2023/08/23 01:48:54;;;;;;;7.07;6.47;;;24.90;66.80;;;;;;5057107;28;20021;-35
2023/08/23 01:51:20;;;;;;;6.60;6.10;;;24.90;67.00;;;;;;5064049;28;20029;-35
2023/08/23 01:53:46;;;;;;;6.45;5.95;;;25.00;67.20;;;;;;5076033;28;20036;-35
2023/08/23 01:56:12;;;;;;;6.40;5.90;;;25.00;67.40;;;;;;5068318;28;20025;-35
2023/08/23 01:58:39;;;;;;;6.63;6.13;;;25.00;67.70;;;;;;5061135;28;20031;-35
2023/08/23 02:01:05;;;;;;;6.47;5.97;;;25.00;67.80;;;;;;5063951;28;20021;-35
2023/08/23 02:03:31;;;;;;;6.75;6.25;;;25.00;68.10;;;;;;5061998;28;20031;-35
2023/08/23 02:05:57;;;;;;;6.10;5.60;;;25.00;68.30;;;;;;5056684;28;20574;-34
2023/08/23 02:08:25;;;;;;;6.88;6.28;;;25.00;68.40;;;;;;5052983;28;20029;-35
2023/08/23 02:10:51;;;;;;;7.13;6.53;;;25.00;68.50;;;;;;5067534;28;20085;-35
2023/08/23 02:13:17;;;;;;;6.88;6.30;;;25.00;68.60;;;;;;5076782;28;20095;-35
2023/08/23 02:15:44;;;;;;;6.85;6.25;;;25.10;68.80;;;;;;5073519;28;20136;-35
2023/08/23 02:18:10;;;;;;;7.38;6.78;;;25.10;68.80;;;;;;5076421;28;20028;-35
2023/08/23 02:20:36;;;;;;;7.25;6.65;;;25.10;68.90;;;;;;5062267;28;20025;-35
2023/08/23 02:23:02;;;;;;;7.68;7.07;;;25.10;69.00;;;;;;5063707;28;20021;-35
2023/08/23 02:25:29;;;;;;;6.97;6.37;;;25.10;69.00;;;;;;5062795;28;20050;-35
2023/08/23 02:27:56;;;;;;;6.78;6.28;;;25.20;69.20;;;;;;5065890;28;20075;-34
2023/08/23 02:30:22;;;;;;;6.80;6.20;;;25.20;69.30;;;;;;5055293;28;20060;-35
2023/08/23 02:32:48;;;;;;;7.15;6.55;;;25.20;69.30;;;;;;5046774;28;20040;-35
2023/08/23 02:35:14;;;;;;;7.13;6.53;;;25.10;69.30;;;;;;5046765;28;20080;-35
2023/08/23 02:37:40;;;;;;;6.67;6.17;;;25.20;69.50;;;;;;5053925;28;21069;-34
2023/08/23 02:40:07;;;;;;;7.20;6.60;;;25.20;70.20;;;;;;5051882;28;20033;-34
2023/08/23 02:42:33;;;;;;;;;;;25.20;69.50;;;;;;5036631;28;20033;-35
2023/08/23 02:44:59;;;;;;;7.13;6.53;;;25.20;69.60;;;;;;5061488;28;19919;-35
2023/08/23 02:47:25;;;;;;;7.57;6.88;;;25.20;69.60;;;;;;5053961;28;20539;-34
2023/08/23 02:49:52;;;;;;;7.90;7.20;;;25.20;69.60;;;;;;5062190;28;20025;-35
2023/08/23 02:52:18;;;;;;;7.35;6.75;;;25.20;69.60;;;;;;5052834;28;20029;-34
2023/08/23 02:54:44;;;;;;;7.78;7.18;;;25.30;69.70;;;;;;5065080;28;20062;-35
2023/08/23 02:57:11;;;;;;;7.32;6.72;;;25.20;69.70;;;;;;5063519;28;20624;-35
2023/08/23 02:59:37;;;;;;;8.07;7.38;;;25.30;69.80;;;;;;5056112;28;20029;-34
2023/08/23 03:02:03;;;;;;;7.60;6.93;;;25.30;69.80;;;;;;5063825;28;20051;-35
2023/08/23 03:04:29;;;;;;;7.07;6.50;;;25.30;69.90;;;;;;5068967;28;20036;-34
2023/08/23 03:06:55;;;;;;;7.38;6.78;;;25.30;70.00;;;;;;5055728;28;20025;-35
2023/08/23 03:09:21;;;;;;;7.78;7.07;;;25.30;70.00;;;;;;5055969;28;20454;-35
2023/08/23 03:11:47;;;;;;;7.70;7.10;;;25.30;70.10;;;;;;5057050;28;20028;-35
2023/08/23 03:14:13;;;;;;;7.43;6.83;;;25.30;70.10;;;;;;5066456;28;20448;-35
2023/08/23 03:16:40;;;;;;;7.38;6.78;;;25.30;70.10;;;;;;5072623;28;20032;-34
2023/08/23 03:19:06;;;;;;;7.17;6.57;;;25.30;70.20;;;;;;5060633;28;20037;-35
2023/08/23 03:21:32;;;;;;;7.30;6.70;;;25.30;70.20;;;;;;5063644;28;20449;-35
2023/08/23 03:23:58;;;;;;;7.87;7.27;;;25.40;70.30;;;;;;5057944;28;20025;-34
2023/08/23 03:26:24;;;;;;;8.13;7.43;;;25.40;70.30;;;;;;5053366;28;20040;-35
2023/08/23 03:28:51;;;;;;;7.43;6.83;;;25.40;70.30;;;;;;5060787;28;20029;-34
2023/08/23 03:31:17;;;;;;;7.32;6.72;;;25.40;70.30;;;;;;5056059;28;20040;-35
2023/08/23 03:33:43;;;;;;;7.47;6.88;;;25.40;70.40;;;;;;5058822;28;20045;-35
2023/08/23 03:36:09;;;;;;;7.85;7.05;;;25.40;70.40;;;;;;5049829;28;20112;-34
2023/08/23 03:38:35;;;;;;;7.95;7.35;;;25.40;70.40;;;;;;5061789;28;20108;-34
2023/08/23 03:41:02;;;;;;;7.38;6.78;;;25.40;70.50;;;;;;5063336;28;20056;-34
2023/08/23 03:43:29;;;;;;;7.65;7.05;;;25.40;70.50;;;;;;5062181;28;20639;-34
2023/08/23 03:45:55;;;;;;;;;;;25.40;70.60;;;;;;5053591;28;20052;-35
2023/08/23 03:48:21;;;;;;;7.88;7.28;;;25.40;70.60;;;;;;5060104;28;19975;-35
2023/08/23 03:50:47;;;;;;;7.40;6.80;;;25.40;70.60;;;;;;5064847;28;20033;-35
2023/08/23 03:53:13;;;;;;;7.60;6.95;;;25.40;70.60;;;;;;5056114;28;20060;-34
2023/08/23 03:55:39;;;;;;;7.45;6.85;;;25.40;70.50;;;;;;5062560;28;20040;-34
2023/08/23 03:58:05;;;;;;;7.45;6.85;;;25.40;70.50;;;;;;5063829;28;20032;-35
2023/08/23 04:00:32;;;;;;;7.20;6.60;;;25.40;70.60;;;;;;5053596;28;20040;-35
2023/08/23 04:03:00;;;;;;;7.68;7.07;;;25.40;70.60;;;;;;5052953;28;20037;-34
2023/08/23 04:05:26;;;;;;;7.85;7.25;;;25.40;70.60;;;;;;5049710;28;20025;-35
2023/08/23 04:07:52;;;;;;;7.57;6.97;;;25.40;70.70;;;;;;5052370;28;20026;-35
2023/08/23 04:10:18;;;;;;;7.60;7.00;;;25.40;70.60;;;;;;5051264;28;20119;-34
2023/08/23 04:12:44;;;;;;;7.50;6.90;;;25.40;70.70;;;;;;5045961;28;20024;-34
2023/08/23 04:15:11;;;;;;;7.68;7.07;;;25.40;70.70;;;;;;5052510;28;20045;-34
2023/08/23 04:17:37;;;;;;;7.57;6.97;;;25.40;70.70;;;;;;5047493;28;20029;-35
2023/08/23 04:20:03;;;;;;;8.38;7.75;;;25.40;70.70;;;;;;5052205;28;20033;-35
2023/08/23 04:22:30;;;;;;;8.18;7.53;;;25.40;70.70;;;;;;5045381;28;20025;-34
2023/08/23 04:24:56;;;;;;;;;;;25.40;70.70;;;;;;5053195;28;20029;-34
2023/08/23 04:27:23;;;;;;;7.70;7.10;;;25.50;70.80;;;;;;5046101;28;19919;-34
2023/08/23 04:29:49;;;;;;;7.18;6.57;;;25.50;70.70;;;;;;5053629;28;20033;-34
2023/08/23 04:32:15;;;;;;;7.60;7.00;;;25.40;70.70;;;;;;5054298;28;20044;-34
2023/08/23 04:34:41;;;;;;;7.10;6.60;;;25.50;70.70;;;;;;5063030;28;20060;-35
2023/08/23 04:37:07;;;;;;;8.00;7.35;;;25.50;70.80;;;;;;5062470;28;20043;-34
2023/08/23 04:39:34;;;;;;;7.28;6.68;;;25.50;70.80;;;;;;5076494;28;20060;-34
2023/08/23 04:42:00;;;;;;;6.95;6.35;;;25.50;70.80;;;;;;5064076;28;20033;-34
2023/08/23 04:44:27;;;;;;;6.57;6.07;;;25.50;70.80;;;;;;5047398;28;20103;-35
2023/08/23 04:46:54;;;;;;;7.25;6.65;;;25.50;70.90;;;;;;5061939;28;20663;-35
2023/08/23 04:49:20;;;;;;;6.93;6.43;;;25.50;70.90;;;;;;5062924;28;20041;-35
2023/08/23 04:51:46;;;;;;;6.70;6.20;;;25.50;71.00;;;;;;5055962;28;20025;-35
2023/08/23 04:54:12;;;;;;;7.07;6.47;;;25.50;70.90;;;;;;5060761;28;20037;-35
2023/08/23 04:56:38;;;;;;;7.13;6.57;;;25.40;70.80;;;;;;5054322;28;20434;-34
2023/08/23 04:59:05;;;;;;;7.25;6.65;;;25.50;70.80;;;;;;5066455;28;20040;-34
2023/08/23 05:01:31;;;;;;;7.40;6.80;;;25.50;70.80;;;;;;5071262;28;20027;-35
2023/08/23 05:03:57;;;;;;;6.88;6.28;;;25.50;70.80;;;;;;5050080;28;20038;-35
2023/08/23 05:06:23;;;;;;;7.30;6.70;;;25.50;70.70;;;;;;5044231;28;20029;-34
2023/08/23 05:08:49;;;;;;;7.30;6.70;;;25.50;70.60;;;;;;5056407;28;20028;-34
2023/08/23 05:11:16;;;;;;;7.33;6.73;;;25.50;70.60;;;;;;5048270;28;20022;-34
2023/08/23 05:13:42;;;;;;;7.40;6.70;;;25.50;70.60;;;;;;5054528;28;20033;-35
2023/08/23 05:16:08;;;;;;;6.97;6.40;;;25.50;70.80;;;;;;5046465;28;20110;-35
2023/08/23 05:18:34;;;;;;;7.22;6.63;;;25.50;70.70;;;;;;5044712;28;20032;-35
2023/08/23 05:21:02;;;;;;;6.65;6.15;;;25.50;70.80;;;;;;5043188;28;20030;-34
2023/08/23 05:23:28;;;;;;;7.15;6.55;;;25.50;70.90;;;;;;5051416;28;20055;-35
2023/08/23 05:25:54;;;;;;;7.30;6.70;;;25.50;71.00;;;;;;5030700;28;20029;-34
2023/08/23 05:28:21;;;;;;;6.72;6.22;;;25.50;71.00;;;;;;5053571;28;20052;-35
2023/08/23 05:30:48;;;;;;;7.43;6.82;;;25.50;71.00;;;;;;5053292;28;20068;-34
2023/08/23 05:33:14;;;;;;;6.85;6.35;;;25.50;71.00;;;;;;5052758;28;20036;-35
2023/08/23 05:35:41;;;;;;;6.70;6.20;;;25.50;70.80;;;;;;5059295;28;20055;-34
2023/08/23 05:38:09;;;;;;;7.72;7.07;;;25.50;70.80;;;;;;5048291;28;20032;-34
2023/08/23 05:40:35;;;;;;;7.40;6.80;;;25.50;70.70;;;;;;5051612;28;20061;-34
2023/08/23 05:43:01;;;;;;;6.70;6.20;;;25.50;70.60;;;;;;5054104;28;20028;-34
2023/08/23 05:45:28;;;;;;;6.63;6.13;;;25.50;70.70;;;;;;5059296;28;20037;-35
2023/08/23 05:47:54;;;;;;;6.88;6.38;;;25.50;71.30;;;;;;5043586;28;20436;-34
2023/08/23 05:50:21;;;;;;;7.07;6.47;;;25.50;70.70;;;;;;5058209;28;20025;-34
2023/08/23 05:52:47;;;;;;;6.65;6.15;;;25.50;70.80;;;;;;5062180;28;20037;-34
2023/08/23 05:55:13;;;;;;;7.00;6.40;;;25.50;70.90;;;;;;5068338;28;20074;-34
2023/08/23 05:57:40;;;;;;;6.60;6.10;;;25.50;70.90;;;;;;5055331;28;20290;-35
2023/08/23 06:00:06;;;;;;;6.70;6.17;;;25.50;71.00;;;;;;5062893;28;20044;-35
2023/08/23 06:02:32;;;;;;;6.80;6.20;;;25.50;71.10;;;;;;5057787;28;20037;-34
2023/08/23 06:04:59;;;;;;;6.50;6.00;;;25.50;71.10;;;;;;5051870;28;20037;-35
2023/08/23 06:07:25;;;;;;;6.90;6.38;;;25.50;71.00;;;;;;5067839;28;20025;-35
2023/08/23 06:09:51;;;;;;;6.90;6.30;;;25.40;70.90;;;;;;5056548;28;20029;-35
2023/08/23 06:12:19;;;;;;;6.82;6.32;;;25.50;70.80;;;;;;5053755;28;20434;-35
2023/08/23 06:14:47;;;;;;;7.00;6.40;;;25.40;70.70;;;;;;5056616;28;20044;-34
2023/08/23 06:17:13;;;;;;;8.20;7.60;;;25.40;70.70;;;;;;5063583;28;20024;-35
2023/08/23 06:19:39;;;;;;;7.00;6.40;;;25.50;70.50;;;;;;5065478;28;20029;-34
2023/08/23 06:22:05;;;;;;;7.10;6.50;;;25.50;70.50;;;;;;5057247;28;20028;-35
2023/08/23 06:24:31;;;;;;;7.00;6.50;;;25.40;70.50;;;;;;5062380;28;20052;-35
2023/08/23 06:26:57;;;;;;;6.47;5.97;;;25.40;70.60;;;;;;5062518;28;20421;-34
2023/08/23 06:29:23;;;;;;;6.40;5.87;;;25.40;70.80;;;;;;5063812;28;20028;-34
2023/08/23 06:31:49;;;;;;;6.53;6.03;;;25.40;70.90;;;;;;5064263;28;20033;-35
2023/08/23 06:34:16;;;;;;;6.65;6.15;;;25.40;71.10;;;;;;5057755;28;20095;-34
2023/08/23 06:36:42;;;;;;;6.63;6.13;;;25.40;71.90;;;;;;5056089;28;20028;-34
2023/08/23 06:39:08;;;;;;;7.82;7.13;;;25.40;71.10;;;;;;5060232;28;20716;-34
2023/08/23 06:41:34;;;;;;;6.22;5.72;;;25.40;71.20;;;;;;5053186;28;20075;-34
2023/08/23 06:44:01;;;;;;;6.60;6.10;;;25.40;71.10;;;;;;5055402;28;20112;-34
2023/08/23 06:46:27;;;;;;;6.63;6.13;;;25.40;71.10;;;;;;5054368;28;20414;-35
2023/08/23 06:48:54;;;;;;;6.97;6.38;;;25.40;70.80;;;;;;5055925;28;20032;-34
2023/08/23 06:51:21;;;;;;;7.47;6.78;;;25.50;70.70;;;;;;5051966;28;20029;-34
2023/08/23 06:53:47;;;;;;;7.22;6.63;;;25.40;70.60;;;;;;5055692;28;20038;-34
2023/08/23 06:56:14;;;;;;;6.20;5.70;;;25.40;70.60;;;;;;5063755;28;20052;-35
2023/08/23 06:58:40;;;;;;;6.87;6.37;;;25.50;70.60;;;;;;5067183;28;20041;-34
2023/08/23 07:01:08;;;;;;;6.40;5.90;;;25.40;70.60;;;;;;5063935;28;20040;-35
2023/08/23 07:03:35;;;;;;;6.72;6.22;;;25.50;70.80;;;;;;5057706;28;20167;-34
2023/08/23 07:06:02;;;;;;;6.68;6.18;;;25.40;71.10;;;;;;5050421;28;20024;-34
2023/08/23 07:08:28;;;;;;;6.22;5.72;;;25.40;71.20;;;;;;5058406;28;20025;-35
2023/08/23 07:10:54;;;;;;;6.15;5.65;;;25.40;71.30;;;;;;5064600;28;20124;-34
2023/08/23 07:13:20;;;;;;;6.55;6.00;;;25.40;71.50;;;;;;5057435;28;20502;-34
2023/08/23 07:15:46;;;;;;;6.78;6.28;;;25.40;71.50;;;;;;5059579;28;20033;-35
2023/08/23 07:18:12;;;;;;;6.60;6.10;;;25.40;71.60;;;;;;5063605;28;20029;-35
2023/08/23 07:20:39;;;;;;;6.85;6.25;;;25.40;71.50;;;;;;5069952;28;20443;-34
2023/08/23 07:23:05;;;;;;;6.80;6.30;;;25.40;71.30;;;;;;5071995;28;20057;-35
2023/08/23 07:25:31;;;;;;;6.55;6.05;;;25.40;71.10;;;;;;5064559;28;20048;-34
2023/08/23 07:27:57;;;;;;;6.13;5.63;;;25.40;71.00;;;;;;5072095;28;20021;-35
2023/08/23 07:30:23;;;;;;;7.00;6.50;;;25.40;71.00;;;;;;5071380;28;20115;-35
2023/08/23 07:32:49;;;;;;;6.50;5.90;;;25.40;70.90;;;;;;5061856;28;20032;-35
2023/08/23 07:35:16;;;;;;;6.70;6.20;;;25.40;70.90;;;;;;5062282;28;20071;-34
2023/08/23 07:37:42;;;;;;;6.70;6.20;;;25.40;71.00;;;;;;5061469;28;20235;-34
2023/08/23 07:40:09;;;;;;;7.40;6.80;;;25.40;71.20;;;;;;5065400;28;20321;-34
2023/08/23 07:42:36;;;;;;;6.85;6.25;;;25.40;71.50;;;;;;5061103;28;20028;-34
2023/08/23 07:45:02;;;;;;;6.68;6.18;;;25.40;71.50;;;;;;5062327;28;20049;-35
2023/08/23 07:47:29;;;;;;;7.55;6.85;;;25.40;71.70;;;;;;5058329;28;20029;-34
2023/08/23 07:49:55;;;;;;;6.93;6.22;;;25.40;71.80;;;;;;5065083;28;20039;-34
2023/08/23 07:52:21;;;;;;;7.00;6.50;;;25.40;71.90;;;;;;5060405;28;20025;-34
2023/08/23 07:54:47;;;;;;;6.97;6.40;;;25.40;71.90;;;;;;5061397;28;20045;-35
2023/08/23 07:57:33;;;;;;;6.60;6.10;;;25.40;71.70;;;;;;5061836;28;20383;-35
2023/08/23 08:00:00;;;;;;;7.13;6.53;;;25.40;71.70;;;;;;4961843;29;20050;-34
2023/08/23 08:02:28;;;;;;;6.20;5.70;;;25.40;71.90;;;;;;4961906;29;20034;-34
2023/08/23 08:04:54;;;;;;;7.28;6.68;;;25.40;72.00;;;;;;4960257;29;20829;-34
2023/08/23 08:07:21;;;;;;;7.25;6.65;;;25.40;72.00;;;;;;4962220;28;20031;-34
2023/08/23 08:09:47;;;;;;;7.38;6.68;;;25.40;72.90;;;;;;4962154;29;20062;-34
2023/08/23 08:12:13;;;;;;;7.15;6.55;;;25.40;72.20;;;;;;4962152;29;20073;-35
2023/08/23 08:14:39;;;;;;;6.93;6.40;;;25.40;72.30;;;;;;4966404;28;20134;-34
2023/08/23 08:17:05;;;;;;;7.23;6.63;;;25.40;72.20;;;;;;4966589;28;20062;-34
2023/08/23 08:19:31;;;;;;;7.27;6.63;;;25.40;72.30;;;;;;4962207;28;20077;-34
2023/08/23 08:21:58;;;;;;;6.70;6.20;;;25.40;72.10;;;;;;4961621;29;20030;-34
2023/08/23 08:24:26;;;;;;;6.97;6.38;;;25.40;72.60;;;;;;4961612;28;20229;-34
2023/08/23 08:26:53;;;;;;;7.22;6.65;;;25.40;71.70;;;;;;4961924;28;20031;-34
2023/08/23 08:29:19;;;;;;;7.60;7.00;;;25.40;71.60;;;;;;4961698;28;20050;-34
2023/08/23 08:31:49;;;;;;;7.63;6.93;;;25.40;71.60;;;;;;4961779;28;20035;-34
2023/08/23 08:34:16;;;;;;;7.25;6.65;;;25.30;71.50;;;;;;4961482;28;20090;-35
2023/08/23 08:36:42;;;;;;;7.35;6.63;;;25.40;71.50;;;;;;4991294;28;20045;-34
2023/08/23 08:39:08;;;;;;;6.93;6.40;;;25.40;71.50;;;;;;5054619;28;20040;-35
2023/08/23 08:41:34;;;;;;;6.85;6.35;;;25.40;71.60;;;;;;5070300;28;20490;-34
2023/08/23 08:44:02;;;;;;;7.27;6.67;;;25.40;71.60;;;;;;5065038;28;20056;-35
2023/08/23 08:46:28;;;;;;;7.32;6.72;;;25.40;71.60;;;;;;5054601;28;20037;-34
2023/08/23 08:48:54;;;;;;;7.40;6.75;;;25.40;71.60;;;;;;5069489;28;20017;-34
2023/08/23 08:51:21;;;;;;;7.47;6.88;;;25.40;71.60;;;;;;5062247;28;20451;-35
2023/08/23 08:53:51;;;;;;;6.88;6.38;;;25.40;71.60;;;;;;5055124;28;20822;-34
2023/08/23 08:56:19;;;;;;;7.13;6.60;;;25.40;71.60;;;;;;5057630;28;20037;-34
2023/08/23 08:58:45;;;;;;;7.75;7.10;;;25.40;71.60;;;;;;5073992;28;20060;-34
2023/08/23 09:01:11;;;;;;;7.33;6.73;;;25.40;71.70;;;;;;5025567;28;20029;-34
2023/08/23 09:03:37;;;;;;;7.47;6.87;;;25.40;71.70;;;;;;5061041;28;20064;-35
2023/08/23 09:06:04;;;;;;;7.07;6.47;;;25.40;71.70;;;;;;5032025;28;20420;-34
2023/08/23 09:08:30;;;;;;;7.87;7.17;;;25.40;71.70;;;;;;5055602;28;20037;-34
2023/08/23 09:10:56;;;;;;;6.70;6.20;;;25.40;71.80;;;;;;5063058;28;20777;-34
2023/08/23 09:13:22;;;;;;;6.97;6.43;;;25.40;71.80;;;;;;5057678;28;20040;-34
2023/08/23 09:15:48;;;;;;;7.80;7.10;;;25.40;71.80;;;;;;5056510;28;20048;-34
2023/08/23 09:18:17;;;;;;;7.40;6.67;;;25.40;71.80;;;;;;5050705;28;20104;-34
2023/08/23 09:20:43;;;;;;;7.03;6.43;;;25.40;71.80;;;;;;5054662;28;20277;-34
2023/08/23 09:23:09;;;;;;;7.80;7.15;;;25.40;71.90;;;;;;5068933;28;20025;-34
2023/08/23 09:25:36;;;;;;;7.33;6.73;;;25.40;71.90;;;;;;5055394;28;20026;-34
2023/08/23 09:28:02;;;;;;;7.75;7.15;;;25.40;71.90;;;;;;5073369;28;20024;-35
2023/08/23 09:30:28;;;;;;;7.63;7.03;;;25.40;72.00;;;;;;5048343;28;20048;-34
2023/08/23 09:32:57;;;;;;;7.30;6.70;;;25.40;72.00;;;;;;5050511;28;20374;-35
2023/08/23 09:35:23;;;;;;;7.28;6.68;;;25.40;72.10;;;;;;5058536;28;20722;-34
2023/08/23 09:37:50;;;;;;;7.72;7.13;;;25.40;72.30;;;;;;5065755;28;20024;-35
2023/08/23 09:40:17;;;;;;;6.97;6.37;;;25.40;72.50;;;;;;5058309;28;20082;-34
2023/08/23 09:42:44;;;;;;;7.53;6.82;;;25.40;72.70;;;;;;5066473;28;20021;-34
2023/08/23 09:45:14;;;;;;;7.90;7.30;;;25.40;72.60;;;;;;5053935;28;20025;-34
2023/08/23 09:47:41;;;;;;;7.72;7.13;;;25.40;72.70;;;;;;5044563;28;20030;-34
2023/08/23 09:50:07;;;;;;;7.35;6.75;;;25.40;72.40;;;;;;5028995;28;20030;-34
2023/08/23 09:52:34;;;;;;;7.32;6.72;;;25.40;72.30;;;;;;5049449;28;20449;-35
2023/08/23 09:55:03;;;;;;;7.28;6.50;;;25.30;72.10;;;;;;5046603;28;20056;-35
2023/08/23 09:57:30;;;;;;;7.53;6.93;;;25.40;72.30;;;;;;5063019;28;20048;-34
2023/08/23 09:59:58;;;;;;;6.80;6.30;;;25.30;72.20;;;;;;5047632;28;20028;-35
2023/08/23 10:02:24;;;;;;;7.30;6.70;;;25.30;72.20;;;;;;5062633;28;20032;-34
2023/08/23 10:04:50;;;;;;;7.35;6.75;;;25.40;72.30;;;;;;5039116;28;20033;-34
2023/08/23 10:07:16;;;;;;;7.03;6.47;;;25.30;72.30;;;;;;5047530;28;20036;-35
2023/08/23 10:09:44;;;;;;;7.60;7.00;;;25.30;72.30;;;;;;5040231;28;20056;-34
2023/08/23 10:12:10;;;;;;;7.95;7.25;;;25.40;72.40;;;;;;5057840;28;20804;-35
2023/08/23 10:14:45;;;;;;;7.75;7.05;;;25.30;72.40;;;;;;5058336;28;20032;-34
2023/08/23 10:17:13;;;;;;;7.55;6.95;;;25.30;72.40;;;;;;5058272;28;20029;-34
2023/08/23 10:19:39;;;;;;;7.18;6.57;;;25.30;72.60;;;;;;5053744;28;20119;-35
2023/08/23 10:22:05;;;;;;;7.97;7.30;;;25.30;72.70;;;;;;5045931;28;20085;-34
2023/08/23 10:24:32;;;;;;;7.50;6.90;;;25.30;72.70;;;;;;5051806;28;20079;-34
2023/08/23 10:27:06;;;;;;;7.90;7.10;;;25.30;72.80;;;;;;5047963;28;20036;-34
2023/08/23 10:29:34;;;;;;;6.70;6.20;;;25.30;72.90;;;;;;5037815;28;20025;-34
2023/08/23 10:32:10;;;;;;;6.70;6.20;;;25.30;72.70;;;;;;5070072;28;20032;-35
2023/08/23 10:34:37;;;;;;;6.75;6.25;;;25.30;72.60;;;;;;5056808;28;20128;-35
2023/08/23 10:37:14;;;;;;;7.93;7.22;;;25.30;72.60;;;;;;5051351;28;20084;-34
2023/08/23 10:39:51;;;;;;;7.75;7.15;;;25.30;72.60;;;;;;5055946;28;20029;-35
2023/08/23 10:42:18;;;;;;;8.10;7.40;;;25.30;72.60;;;;;;5056429;28;20040;-34
2023/08/23 10:45:00;;;;;;;7.60;7.00;;;25.30;72.60;;;;;;5038782;28;20445;-34
2023/08/23 10:47:26;;;;;;;8.05;7.35;;;25.30;72.60;;;;;;5060148;28;20047;-34
2023/08/23 10:49:52;;;;;;;6.70;6.20;;;25.30;72.60;;;;;;5046676;28;20037;-34
2023/08/23 10:52:21;;;;;;;7.22;6.70;;;25.30;72.60;;;;;;5052333;28;20037;-34
2023/08/23 10:54:47;;;;;;;7.25;6.60;;;25.30;72.60;;;;;;5068825;28;20047;-34
2023/08/23 10:57:13;;;;;;;7.78;7.18;;;25.30;73.50;;;;;;5062843;28;20033;-34
2023/08/23 10:59:39;;;;;;;7.10;6.50;;;25.30;73.00;;;;;;5054338;28;20068;-34
2023/08/23 11:02:07;;;;;;;7.68;6.97;;;25.30;72.90;;;;;;5056755;28;20096;-34
2023/08/23 11:04:33;;;;;;;7.90;7.30;;;25.30;72.90;;;;;;5051766;28;20028;-34
2023/08/23 11:06:59;;;;;;;7.20;6.60;;;25.30;72.90;;;;;;5066773;28;20035;-34
2023/08/23 11:09:25;;;;;;;7.38;6.72;;;25.30;73.00;;;;;;5055701;28;20082;-34
2023/08/23 11:11:52;;;;;;;7.43;6.80;;;25.30;73.00;;;;;;5059531;28;20446;-35
2023/08/23 11:14:18;;;;;;;7.40;6.80;;;25.30;73.00;;;;;;5067449;28;20289;-34
2023/08/23 11:16:44;;;;;;;7.55;6.95;;;25.30;72.90;;;;;;5054616;28;20035;-35
2023/08/23 11:19:11;;;;;;;7.53;6.93;;;25.20;72.80;;;;;;5056513;28;20100;-35
2023/08/23 11:21:38;;;;;;;7.45;6.85;;;25.20;72.80;;;;;;5061402;28;20598;-34
2023/08/23 11:24:05;;;;;;;7.18;6.57;;;25.20;72.80;;;;;;5019322;28;20029;-34
2023/08/23 11:26:34;;;;;;;7.32;6.72;;;25.20;72.90;;;;;;5069882;28;20054;-34
2023/08/23 11:29:00;;;;;;;7.15;6.45;;;25.20;72.80;;;;;;5060212;28;20524;-34
2023/08/23 11:31:28;;;;;;;7.72;7.05;;;25.30;73.00;;;;;;5065740;28;20033;-34
2023/08/23 11:33:57;;;;;;;7.97;7.38;;;25.30;73.00;;;;;;5054751;28;20056;-34
2023/08/23 11:36:23;;;;;;;7.63;7.03;;;25.30;73.00;;;;;;5070460;28;20039;-33
2023/08/23 11:38:50;;;;;;;7.80;7.10;;;25.20;73.20;;;;;;5054695;28;20052;-34
2023/08/23 11:41:30;;;;;;;7.43;6.82;;;25.20;73.30;;;;;;5048657;28;20052;-34
2023/08/23 11:43:56;;;;;;;8.10;7.40;;;25.20;73.20;;;;;;5054864;28;20059;-34
2023/08/23 11:46:22;;;;;;;7.75;7.15;;;25.20;73.20;;;;;;5069256;28;20036;-35
2023/08/23 11:48:48;;;;;;;7.47;6.87;;;25.20;73.30;;;;;;5059145;28;20026;-34
2023/08/23 11:51:15;;;;;;;7.17;6.57;;;25.20;73.30;;;;;;5051508;28;20033;-34
2023/08/23 11:53:54;;;;;;;7.65;7.03;;;25.20;73.20;;;;;;5056640;28;20025;-35
2023/08/23 11:56:21;;;;;;;7.88;7.28;;;25.20;73.10;;;;;;5035771;28;20363;-35
2023/08/23 11:58:47;;;;;;;8.02;7.43;;;25.20;73.10;;;;;;5059955;28;20044;-34
2023/08/23 12:01:13;;;;;;;7.97;7.38;;;25.20;73.10;;;;;;5059094;28;20052;-34
2023/08/23 12:03:39;;;;;;;8.17;7.47;;;25.20;73.20;;;;;;5062370;28;20048;-34
2023/08/23 12:06:06;;;;;;;7.72;7.13;;;25.20;73.20;;;;;;5070070;28;20025;-34
2023/08/23 12:08:33;;;;;;;8.45;7.75;;;25.20;73.10;;;;;;5061297;28;20063;-35
2023/08/23 12:10:59;;;;;;;8.35;7.65;;;25.20;73.20;;;;;;5060527;28;20056;-34
2023/08/23 12:13:26;;;;;;;8.30;7.57;;;25.20;73.10;;;;;;5061105;28;20582;-34
2023/08/23 12:15:52;;;;;;;8.07;7.38;;;25.20;73.40;;;;;;5062388;28;20286;-34
2023/08/23 12:18:18;;;;;;;7.97;7.28;;;25.20;73.40;;;;;;5061544;28;20042;-34
2023/08/23 12:20:44;;;;;;;8.00;7.30;;;25.20;73.50;;;;;;5062080;28;20033;-35
2023/08/23 12:23:10;;;;;;;7.55;6.95;;;25.20;73.50;;;;;;5056198;28;20029;-34
2023/08/23 12:25:36;;;;;;;8.65;7.95;;;25.20;73.50;;;;;;5052570;28;20029;-34
2023/08/23 12:28:03;;;;;;;8.60;7.90;;;25.20;73.60;;;;;;5057439;28;20029;-35
2023/08/23 12:30:30;;;;;;;9.43;8.43;;;25.20;73.50;;;;;;5066010;28;20043;-35
2023/08/23 12:32:56;;;;;;;8.40;7.68;;;25.20;73.40;;;;;;5055720;28;20025;-35
2023/08/23 12:35:22;;;;;;;9.13;8.32;;;25.20;73.70;;;;;;5054158;28;20053;-35
2023/08/23 12:37:48;;;;;;;9.53;8.73;;;25.20;73.30;;;;;;5051698;28;20047;-34
2023/08/23 12:40:15;;;;;;;9.45;8.57;;;25.20;73.40;;;;;;5057034;28;20033;-34
2023/08/23 12:42:41;;;;;;;9.57;8.77;;;25.20;73.40;;;;;;5060457;28;20055;-35
2023/08/23 12:45:07;;;;;;;9.82;9.00;;;25.20;73.40;;;;;;5055914;28;20128;-35